Time;durP1;ratioP1;P1;durP2;ratioP2;P2;SDS_P1;SDS_P2;PMS_P1;PMS_P2;Temp;Humidity;BMP_temperature;BMP_pressure;BME280_temperature;BME280_humidity;BME280_pressure;Samples;Min_cycle;Max_cycle;Signal;HPM_P1;HPM_P2
2022/06/15 00:00:53;;;;;;;32.85;30.77;;;22.30;51.30;;;;;;5006765;28;20029;-80
2022/06/15 00:03:19;;;;;;;34.55;32.65;;;22.20;51.40;;;;;;5004429;28;20041;-80
2022/06/15 00:05:45;;;;;;;32.53;30.65;;;22.10;51.70;;;;;;5004327;28;20403;-80
2022/06/15 00:08:11;;;;;;;33.72;31.58;;;22.10;51.80;;;;;;5005148;28;20037;-80
2022/06/15 00:10:39;;;;;;;30.23;28.38;;;22.10;51.80;;;;;;5009098;28;20041;-80
2022/06/15 00:13:06;;;;;;;30.55;28.63;;;22.00;52.10;;;;;;4998629;28;20459;-80
2022/06/15 00:15:33;;;;;;;26.58;24.83;;;21.90;52.30;;;;;;4986891;28;20418;-80
2022/06/15 00:17:59;;;;;;;26.15;24.52;;;21.80;52.30;;;;;;5004336;28;20017;-80
2022/06/15 00:20:25;;;;;;;27.70;26.00;;;21.80;52.60;;;;;;5004062;28;20050;-81
2022/06/15 00:22:52;;;;;;;29.30;27.45;;;21.70;52.80;;;;;;5008400;28;20502;-80
2022/06/15 00:25:18;;;;;;;29.05;27.13;;;21.70;53.10;;;;;;4994698;28;20045;-79
2022/06/15 00:27:44;;;;;;;27.52;25.92;;;21.70;53.10;;;;;;4997623;28;20034;-80
2022/06/15 00:30:11;;;;;;;27.48;25.77;;;21.80;52.80;;;;;;4999751;28;20026;-80
2022/06/15 00:32:37;;;;;;;24.98;23.58;;;21.90;52.80;;;;;;5003877;28;20030;-80
2022/06/15 00:35:03;;;;;;;26.35;24.85;;;21.80;52.90;;;;;;5009522;28;20033;-80
2022/06/15 00:37:30;;;;;;;26.27;24.25;;;21.70;53.20;;;;;;4995338;28;20030;-81
2022/06/15 00:39:56;;;;;;;25.25;23.67;;;21.60;53.30;;;;;;4996444;28;20037;-81
2022/06/15 00:42:22;;;;;;;24.35;22.80;;;21.70;53.40;;;;;;5001835;28;20022;-80
2022/06/15 00:44:49;;;;;;;24.10;22.45;;;21.70;53.30;;;;;;5003700;28;20053;-81
2022/06/15 00:47:22;;;;;;;24.42;22.58;;;21.70;53.40;;;;;;5008368;28;20034;-81
2022/06/15 00:49:57;;;;;;;23.40;21.95;;;21.60;53.50;;;;;;4993171;28;20041;-80
2022/06/15 00:52:28;;;;;;;24.63;23.20;;;21.70;53.50;;;;;;4994364;28;20019;-80
2022/06/15 00:54:54;;;;;;;25.13;23.45;;;21.70;53.50;;;;;;4998025;28;20565;-80
2022/06/15 00:57:20;;;;;;;25.80;24.10;;;21.70;53.50;;;;;;5001111;28;20034;-80
2022/06/15 00:59:58;;;;;;;27.83;25.95;;;21.70;53.50;;;;;;5003336;28;20022;-81
2022/06/15 01:02:25;;;;;;;25.65;24.08;;;21.70;53.50;;;;;;5002569;28;20022;-80
2022/06/15 01:04:55;;;;;;;26.60;24.90;;;21.70;53.90;;;;;;5007737;28;20041;-80
2022/06/15 01:07:43;;;;;;;33.00;31.00;;;21.50;54.20;;;;;;4994320;28;20029;-80
2022/06/15 01:13:35;;;;;;;29.95;28.25;;;21.20;54.90;;;;;;5008317;28;20441;-78
2022/06/15 01:16:10;;;;;;;31.67;29.42;;;21.10;55.40;;;;;;5010695;28;20827;-78
2022/06/15 01:19:14;;;;;;;23.92;22.35;;;21.20;55.30;;;;;;5025798;28;20037;-77
2022/06/15 01:21:48;;;;;;;20.10;18.40;;;21.20;55.30;;;;;;5009331;28;20462;-78
2022/06/15 01:24:33;;;;;;;18.67;17.45;;;21.20;55.30;;;;;;5025808;28;20048;-77
2022/06/15 01:27:31;;;;;;;19.80;18.60;;;21.10;55.60;;;;;;5011392;28;20038;-77
2022/06/15 01:30:04;;;;;;;20.88;19.27;;;21.20;55.70;;;;;;5022757;28;20492;-77
2022/06/15 01:32:36;;;;;;;21.50;19.90;;;21.10;55.80;;;;;;5025181;28;20034;-78
2022/06/15 01:35:13;;;;;;;21.48;20.17;;;21.10;55.70;;;;;;5025628;28;20030;-77
2022/06/15 01:37:47;;;;;;;19.77;18.38;;;21.00;56.20;;;;;;5026918;28;20032;-78
2022/06/15 01:40:24;;;;;;;18.95;17.42;;;21.00;56.20;;;;;;5009984;28;20048;-77
2022/06/15 01:42:53;;;;;;;19.33;18.05;;;20.90;56.10;;;;;;5008604;28;20088;-77
2022/06/15 01:45:21;;;;;;;17.77;16.67;;;20.90;56.50;;;;;;5025183;28;20121;-77
2022/06/15 01:47:48;;;;;;;18.05;16.75;;;20.90;56.50;;;;;;5026332;28;20026;-75
2022/06/15 01:50:17;;;;;;;17.58;16.40;;;20.90;56.50;;;;;;5025840;28;20034;-78
2022/06/15 01:52:49;;;;;;;16.92;15.43;;;21.00;56.20;;;;;;5025507;28;20026;-78
2022/06/15 01:55:30;;;;;;;16.10;14.65;;;21.10;56.10;;;;;;4992867;28;20564;-78
2022/06/15 01:57:59;;;;;;;15.48;14.15;;;21.10;56.10;;;;;;5023734;28;20038;-77
2022/06/15 02:00:25;;;;;;;15.23;14.13;;;21.00;56.20;;;;;;5024918;28;20041;-77
2022/06/15 02:03:11;;;;;;;15.63;14.52;;;21.00;56.20;;;;;;5026434;28;20033;-77
2022/06/15 02:05:49;;;;;;;15.60;14.50;;;21.00;56.40;;;;;;5026134;28;20052;-77
2022/06/15 02:08:23;;;;;;;15.88;14.70;;;21.00;56.40;;;;;;5024543;28;20034;-77
2022/06/15 02:11:12;;;;;;;15.93;14.55;;;20.90;56.60;;;;;;5013920;28;20042;-78
2022/06/15 02:13:54;;;;;;;14.90;13.90;;;20.90;56.50;;;;;;5008206;28;20053;-77
2022/06/15 02:16:26;;;;;;;15.15;13.93;;;20.80;56.60;;;;;;5000387;28;20037;-78
2022/06/15 02:18:54;;;;;;;14.77;13.75;;;20.80;56.90;;;;;;5008330;28;20045;-77
2022/06/15 02:21:20;;;;;;;14.27;13.43;;;20.70;57.10;;;;;;5012675;28;20041;-77
2022/06/15 02:23:49;;;;;;;14.82;13.48;;;20.70;57.20;;;;;;5025419;28;20034;-77
2022/06/15 02:26:15;;;;;;;14.57;13.48;;;20.60;57.10;;;;;;5025248;28;20044;-77
2022/06/15 02:28:45;;;;;;;14.98;14.05;;;20.60;57.40;;;;;;4992563;28;20036;-77
2022/06/15 02:31:11;;;;;;;13.85;12.90;;;20.50;57.20;;;;;;5025131;28;20038;-77
2022/06/15 02:33:38;;;;;;;14.07;13.10;;;20.50;57.40;;;;;;5025235;28;20030;-77
2022/06/15 02:36:04;;;;;;;14.55;13.57;;;20.50;57.60;;;;;;5011199;28;20018;-77
2022/06/15 02:38:31;;;;;;;15.88;14.48;;;20.50;57.60;;;;;;5009663;28;20026;-77
2022/06/15 02:40:57;;;;;;;14.30;13.32;;;20.40;57.70;;;;;;5025128;28;20478;-77
2022/06/15 02:43:26;;;;;;;15.27;14.07;;;20.30;57.90;;;;;;5025642;28;20026;-77
2022/06/15 02:45:52;;;;;;;13.25;12.45;;;20.30;57.90;;;;;;5024436;28;20045;-77
2022/06/15 02:48:18;;;;;;;16.00;14.68;;;20.30;58.10;;;;;;5025276;28;20022;-77
2022/06/15 02:50:53;;;;;;;15.48;14.07;;;20.30;58.20;;;;;;5025601;28;20037;-77
2022/06/15 02:53:24;;;;;;;15.60;14.57;;;20.30;58.20;;;;;;5007670;28;20043;-77
2022/06/15 02:55:50;;;;;;;;;;;20.30;58.10;;;;;;5025480;28;20478;-78
2022/06/15 02:58:27;;;;;;;19.67;18.13;;;20.30;58.20;;;;;;4997957;28;19955;-77
2022/06/15 03:00:54;;;;;;;16.85;15.68;;;20.20;58.10;;;;;;5023804;28;20049;-77
2022/06/15 03:03:22;;;;;;;14.85;13.75;;;20.20;58.30;;;;;;5025208;28;20034;-77
2022/06/15 03:05:50;;;;;;;17.60;16.42;;;20.20;58.40;;;;;;5010017;28;20058;-77
2022/06/15 03:08:16;;;;;;;18.65;17.30;;;20.10;58.30;;;;;;5024932;28;20037;-77
2022/06/15 03:10:42;;;;;;;18.83;17.67;;;20.10;58.30;;;;;;5012629;28;20030;-77
2022/06/15 03:13:08;;;;;;;21.98;20.63;;;20.10;58.30;;;;;;5029178;28;20469;-77
2022/06/15 03:15:34;;;;;;;19.08;17.67;;;20.10;58.20;;;;;;5028219;28;20033;-77
2022/06/15 03:18:00;;;;;;;24.85;23.45;;;20.10;58.20;;;;;;5029268;28;20030;-77
2022/06/15 03:20:27;;;;;;;25.25;23.60;;;20.10;57.90;;;;;;5013445;28;20025;-77
2022/06/15 03:22:53;;;;;;;24.27;22.52;;;20.10;58.20;;;;;;5028180;28;20047;-77
2022/06/15 03:25:19;;;;;;;22.00;20.55;;;20.00;58.30;;;;;;5029182;28;20046;-77
2022/06/15 03:27:45;;;;;;;23.33;21.88;;;20.00;58.50;;;;;;5013300;28;20025;-77
2022/06/15 03:30:11;;;;;;;22.67;21.27;;;19.90;58.40;;;;;;5028320;28;20045;-77
2022/06/15 03:32:37;;;;;;;23.02;21.42;;;19.90;58.70;;;;;;5028720;28;20025;-77
2022/06/15 03:35:04;;;;;;;20.70;18.92;;;19.90;58.30;;;;;;5028465;28;20034;-77
2022/06/15 03:37:30;;;;;;;20.42;19.00;;;19.90;58.50;;;;;;5013604;28;20409;-77
2022/06/15 03:39:56;;;;;;;20.98;19.60;;;20.00;58.30;;;;;;5028157;28;20033;-77
2022/06/15 03:42:23;;;;;;;20.65;19.27;;;20.10;58.10;;;;;;5013073;28;20406;-77
2022/06/15 03:44:50;;;;;;;20.58;19.02;;;20.00;58.20;;;;;;5012452;28;20041;-77
2022/06/15 03:47:20;;;;;;;20.70;19.13;;;20.10;58.10;;;;;;5012380;28;20064;-77
2022/06/15 03:49:50;;;;;;;19.02;17.73;;;20.10;58.10;;;;;;5012694;28;20506;-77
2022/06/15 03:52:20;;;;;;;20.52;18.70;;;20.00;58.20;;;;;;5003921;28;20035;-77
2022/06/15 03:54:46;;;;;;;19.17;17.97;;;20.00;58.20;;;;;;5010964;28;20039;-77
2022/06/15 03:57:13;;;;;;;18.85;17.35;;;19.80;58.30;;;;;;5020779;28;20038;-78
2022/06/15 03:59:39;;;;;;;18.23;17.05;;;19.80;58.60;;;;;;5028132;28;20385;-77
2022/06/15 04:02:05;;;;;;;17.52;16.52;;;19.80;58.60;;;;;;5027295;28;20393;-77
2022/06/15 04:04:32;;;;;;;18.83;17.38;;;19.90;58.40;;;;;;5013224;28;20037;-77
2022/06/15 04:06:59;;;;;;;18.23;16.83;;;20.00;58.30;;;;;;5012664;28;20537;-77
2022/06/15 04:09:25;;;;;;;19.73;18.35;;;19.90;58.30;;;;;;5027989;28;20042;-77
2022/06/15 04:12:10;;;;;;;18.77;17.35;;;19.90;58.20;;;;;;5002370;28;20397;-77
2022/06/15 04:14:36;;;;;;;18.08;16.77;;;20.00;58.20;;;;;;5025278;28;20501;-78
2022/06/15 04:17:03;;;;;;;19.25;17.80;;;19.90;58.40;;;;;;5027024;28;20026;-77
2022/06/15 04:19:30;;;;;;;17.85;16.55;;;19.80;58.60;;;;;;5027878;28;20038;-77
2022/06/15 04:21:56;;;;;;;17.60;16.38;;;19.80;58.70;;;;;;4994496;28;20030;-78
2022/06/15 04:24:25;;;;;;;16.35;15.05;;;19.70;58.80;;;;;;5028129;28;20398;-77
2022/06/15 04:26:52;;;;;;;18.58;17.13;;;19.80;58.80;;;;;;5014308;28;20061;-77
2022/06/15 04:29:19;;;;;;;18.25;16.85;;;19.70;58.60;;;;;;4985814;28;20034;-77
2022/06/15 04:31:46;;;;;;;16.48;15.18;;;19.70;58.80;;;;;;5014704;28;20034;-77
2022/06/15 04:34:12;;;;;;;16.40;15.00;;;19.60;58.90;;;;;;5027642;28;20470;-77
2022/06/15 04:36:39;;;;;;;17.75;16.48;;;19.60;59.10;;;;;;5010406;28;20042;-77
2022/06/15 04:39:06;;;;;;;17.33;16.05;;;19.60;58.90;;;;;;5027798;28;20042;-77
2022/06/15 04:41:38;;;;;;;16.83;15.73;;;19.60;58.80;;;;;;5010133;28;20508;-77
2022/06/15 04:44:05;;;;;;;18.23;16.38;;;19.70;58.80;;;;;;5021950;28;20030;-77
2022/06/15 04:46:32;;;;;;;18.13;16.48;;;19.70;58.70;;;;;;5027084;28;20045;-77
2022/06/15 04:48:58;;;;;;;16.67;15.57;;;19.70;58.60;;;;;;5026672;28;20029;-78
2022/06/15 04:51:25;;;;;;;18.02;16.60;;;19.70;58.60;;;;;;5010374;28;20402;-77
2022/06/15 04:53:52;;;;;;;17.40;16.27;;;19.70;58.60;;;;;;5013159;28;20486;-77
2022/06/15 04:56:18;;;;;;;19.75;18.30;;;19.70;58.40;;;;;;5024699;28;20377;-77
2022/06/15 04:58:44;;;;;;;19.35;17.95;;;19.80;58.20;;;;;;4994153;28;20064;-77
2022/06/15 05:01:11;;;;;;;19.88;18.35;;;19.90;58.20;;;;;;5010614;28;20512;-78
2022/06/15 05:03:37;;;;;;;18.65;17.25;;;19.90;58.10;;;;;;5009247;28;20038;-77
2022/06/15 05:06:21;;;;;;;18.83;17.58;;;20.00;57.80;;;;;;5027430;28;20041;-77
2022/06/15 05:08:47;;;;;;;18.60;17.40;;;20.10;57.50;;;;;;5012040;28;20038;-77
2022/06/15 05:11:14;;;;;;;18.77;17.42;;;20.30;57.10;;;;;;5011351;28;20036;-77
2022/06/15 05:13:40;;;;;;;18.63;17.10;;;20.20;57.40;;;;;;5027378;28;20049;-77
2022/06/15 05:16:06;;;;;;;18.63;17.33;;;20.30;57.00;;;;;;5025810;28;20038;-77
2022/06/15 05:18:32;;;;;;;18.15;16.75;;;20.40;57.00;;;;;;5026095;28;20049;-77
2022/06/15 05:21:00;;;;;;;17.83;16.77;;;20.40;56.80;;;;;;5011632;28;20030;-77
2022/06/15 05:23:26;;;;;;;19.23;17.83;;;20.50;56.80;;;;;;5026439;28;20025;-78
2022/06/15 05:25:52;;;;;;;19.00;17.70;;;20.60;56.40;;;;;;5026438;28;20485;-77
2022/06/15 05:28:18;;;;;;;19.35;17.98;;;20.70;56.40;;;;;;5026826;28;20045;-77
2022/06/15 05:30:44;;;;;;;20.48;18.85;;;20.80;56.10;;;;;;5010410;28;20417;-77
2022/06/15 05:33:10;;;;;;;21.13;19.50;;;21.00;55.90;;;;;;5010089;28;20410;-77
2022/06/15 05:35:36;;;;;;;20.65;19.40;;;21.10;55.30;;;;;;5011330;28;20049;-78
2022/06/15 05:38:03;;;;;;;22.10;20.25;;;21.10;55.40;;;;;;5010605;28;20494;-78
2022/06/15 05:40:29;;;;;;;20.70;19.25;;;21.20;55.20;;;;;;5011607;28;20042;-78
2022/06/15 05:42:55;;;;;;;21.48;19.75;;;21.10;55.10;;;;;;5010839;28;20516;-77
2022/06/15 05:45:21;;;;;;;20.50;19.00;;;21.10;55.20;;;;;;5014139;28;20051;-78
2022/06/15 05:47:47;;;;;;;21.08;19.50;;;21.30;54.90;;;;;;5010950;28;20469;-77
2022/06/15 05:50:13;;;;;;;20.73;19.00;;;21.30;55.10;;;;;;5008482;28;20045;-77
2022/06/15 05:52:40;;;;;;;23.00;21.50;;;21.40;54.90;;;;;;5025808;28;20517;-78
2022/06/15 05:55:06;;;;;;;24.55;23.15;;;21.70;54.30;;;;;;5010275;28;20038;-77
2022/06/15 05:57:32;;;;;;;25.67;24.08;;;21.80;54.00;;;;;;5025770;28;20034;-77
2022/06/15 05:59:59;;;;;;;26.27;24.42;;;21.80;53.60;;;;;;5011294;28;20026;-77
2022/06/15 06:02:26;;;;;;;24.63;23.02;;;21.90;53.40;;;;;;5024765;28;20038;-77
2022/06/15 06:04:53;;;;;;;26.77;25.02;;;21.90;53.60;;;;;;5008666;28;20462;-78
2022/06/15 06:07:19;;;;;;;30.15;28.10;;;22.10;53.70;;;;;;5010750;28;20060;-78
2022/06/15 06:09:45;;;;;;;40.80;38.55;;;22.40;53.50;;;;;;5010228;28;20034;-78
2022/06/15 06:12:12;;;;;;;44.08;41.58;;;22.60;52.50;;;;;;5025514;28;20045;-78
2022/06/15 06:14:38;;;;;;;43.63;40.88;;;22.50;51.90;;;;;;5010634;28;20041;-77
2022/06/15 06:17:05;;;;;;;42.90;40.30;;;22.50;52.10;;;;;;5009357;28;20030;-77
2022/06/15 06:19:31;;;;;;;40.15;37.95;;;22.50;51.80;;;;;;5025924;28;20038;-78
2022/06/15 06:21:57;;;;;;;36.28;34.13;;;22.50;51.90;;;;;;5009178;28;20025;-77
2022/06/15 06:24:23;;;;;;;45.08;42.38;;;22.50;52.30;;;;;;5008462;28;20049;-78
2022/06/15 06:26:57;;;;;;;45.60;43.10;;;22.70;52.00;;;;;;5025892;28;20409;-77
2022/06/15 06:29:23;;;;;;;43.08;40.58;;;22.80;51.80;;;;;;5025052;28;20026;-77
2022/06/15 06:31:49;;;;;;;43.88;41.15;;;22.90;51.40;;;;;;5022781;28;20037;-77
2022/06/15 06:34:15;;;;;;;28.15;26.35;;;23.10;52.00;;;;;;5025656;28;20025;-78
2022/06/15 06:36:45;;;;;;;26.48;24.48;;;23.30;50.30;;;;;;5010193;28;20041;-78
2022/06/15 06:39:16;;;;;;;26.13;24.37;;;23.40;50.10;;;;;;5025342;28;20026;-77
2022/06/15 06:41:42;;;;;;;26.60;24.92;;;23.50;49.70;;;;;;5004662;28;20463;-77
2022/06/15 06:44:09;;;;;;;33.97;31.83;;;23.60;49.50;;;;;;5025182;28;20041;-77
2022/06/15 06:46:35;;;;;;;24.83;23.48;;;23.60;49.50;;;;;;5029000;28;20046;-77
2022/06/15 06:49:04;;;;;;;28.58;26.98;;;23.70;49.20;;;;;;5029131;28;20029;-78
2022/06/15 06:51:31;;;;;;;28.20;26.45;;;23.90;48.70;;;;;;5013899;28;20045;-77
2022/06/15 06:53:57;;;;;;;32.42;29.88;;;24.00;48.70;;;;;;5029819;28;20467;-78
2022/06/15 06:56:23;;;;;;;29.83;27.95;;;24.20;48.80;;;;;;5014129;28;20037;-78
2022/06/15 06:58:49;;;;;;;33.75;31.75;;;24.30;48.40;;;;;;5029295;28;20026;-78
2022/06/15 07:01:15;;;;;;;31.40;29.60;;;24.50;47.70;;;;;;5011703;28;20038;-78
2022/06/15 07:03:41;;;;;;;30.50;28.67;;;24.50;48.20;;;;;;5028846;28;20492;-78
2022/06/15 07:06:08;;;;;;;28.58;26.75;;;24.40;47.40;;;;;;5014379;28;20047;-78
2022/06/15 07:08:34;;;;;;;29.45;27.63;;;24.50;47.60;;;;;;5028870;28;20037;-78
2022/06/15 07:11:00;;;;;;;31.50;29.55;;;24.50;47.80;;;;;;5027918;28;20041;-78
2022/06/15 07:13:26;;;;;;;27.85;25.85;;;24.70;47.30;;;;;;5014381;28;20121;-78
2022/06/15 07:15:52;;;;;;;28.50;26.73;;;24.90;47.00;;;;;;5012874;28;20026;-78
2022/06/15 07:18:19;;;;;;;26.48;24.77;;;25.00;47.00;;;;;;5028656;28;20040;-78
2022/06/15 07:20:45;;;;;;;29.23;27.52;;;25.20;45.90;;;;;;5029033;28;20500;-78
2022/06/15 07:23:11;;;;;;;26.73;25.23;;;25.30;45.70;;;;;;5028535;28;20026;-78
2022/06/15 07:25:37;;;;;;;27.35;25.40;;;25.40;45.80;;;;;;5029251;28;20018;-78
2022/06/15 07:28:03;;;;;;;26.27;24.58;;;25.40;45.40;;;;;;5013026;28;20057;-77
2022/06/15 07:30:29;;;;;;;25.40;23.80;;;25.60;45.30;;;;;;5027699;28;20501;-78
2022/06/15 07:32:56;;;;;;;26.73;25.02;;;25.70;45.20;;;;;;5014001;28;20041;-77
2022/06/15 07:35:24;;;;;;;26.58;24.75;;;25.70;45.50;;;;;;5012618;28;20029;-78
2022/06/15 07:37:51;;;;;;;27.17;25.15;;;25.80;45.10;;;;;;5028227;28;20049;-78
2022/06/15 07:40:19;;;;;;;26.63;24.98;;;26.00;44.80;;;;;;5028838;28;20389;-78
2022/06/15 07:42:45;;;;;;;26.00;24.60;;;26.10;44.40;;;;;;5027521;28;20033;-78
2022/06/15 07:45:12;;;;;;;26.73;25.00;;;26.10;44.50;;;;;;5012992;28;20098;-78
2022/06/15 07:50:22;;;;;;;27.30;25.50;;;26.10;44.40;;;;;;5013481;28;20088;-78
2022/06/15 07:52:50;;;;;;;28.05;25.85;;;26.20;44.30;;;;;;5013048;28;20030;-78
2022/06/15 07:55:22;;;;;;;27.15;25.27;;;26.20;44.40;;;;;;5028608;28;20363;-78
2022/06/15 07:57:48;;;;;;;26.50;24.90;;;26.50;44.60;;;;;;5026646;28;20025;-78
2022/06/15 08:00:15;;;;;;;27.20;25.15;;;26.50;43.60;;;;;;5027636;28;20272;-78
2022/06/15 08:02:41;;;;;;;26.80;25.00;;;26.60;43.70;;;;;;5011330;28;20041;-78
2022/06/15 08:05:08;;;;;;;26.77;25.27;;;26.60;44.00;;;;;;5027752;28;20029;-78
2022/06/15 08:07:35;;;;;;;1999.90;999.90;;;26.60;43.70;;;;;;5028404;28;20053;-78
2022/06/15 08:10:01;;;;;;;520.63;269.20;;;26.70;43.80;;;;;;5012116;28;20380;-78
2022/06/15 08:12:28;;;;;;;1999.90;999.90;;;26.90;43.70;;;;;;5027298;28;20505;-78
2022/06/15 08:14:56;;;;;;;1999.90;999.90;;;27.00;43.00;;;;;;5028279;28;20040;-78
2022/06/15 08:17:23;;;;;;;1999.90;999.90;;;27.10;43.00;;;;;;5011945;28;20034;-78
2022/06/15 08:19:56;;;;;;;1999.90;999.90;;;27.20;43.10;;;;;;5027309;28;20053;-78
2022/06/15 08:22:22;;;;;;;1999.90;999.90;;;27.40;42.60;;;;;;5017880;28;20029;-78
2022/06/15 08:24:48;;;;;;;1999.90;999.90;;;27.40;42.40;;;;;;5027573;28;20045;-78
2022/06/15 08:27:15;;;;;;;1999.90;999.90;;;27.40;42.60;;;;;;5027252;28;20140;-78
2022/06/15 08:29:42;;;;;;;1999.90;999.90;;;27.60;41.80;;;;;;5027745;28;20053;-78
2022/06/15 08:32:08;;;;;;;1999.90;999.90;;;27.80;42.00;;;;;;5026787;28;20474;-78
2022/06/15 08:34:37;;;;;;;1999.90;999.90;;;28.00;41.00;;;;;;5027919;28;20040;-78
2022/06/15 08:37:05;;;;;;;1999.90;999.90;;;28.10;41.10;;;;;;5026953;28;20342;-78
2022/06/15 08:39:31;;;;;;;1999.90;999.90;;;28.20;40.50;;;;;;5027030;28;20450;-78
2022/06/15 08:42:12;;;;;;;1999.90;999.90;;;28.30;40.80;;;;;;5017795;28;20054;-78
2022/06/15 08:45:04;;;;;;;1999.90;999.90;;;28.40;40.80;;;;;;5012273;28;20114;-78
2022/06/15 08:47:51;;;;;;;1999.90;999.90;;;28.50;40.60;;;;;;4991369;28;20050;-77
2022/06/15 08:50:20;;;;;;;1999.90;999.90;;;28.50;40.80;;;;;;4992548;28;20037;-78
2022/06/15 08:53:07;;;;;;;1999.90;999.90;;;28.60;40.90;;;;;;4991574;28;20045;-78
2022/06/15 08:55:37;;;;;;;1999.90;999.90;;;28.70;40.40;;;;;;4975206;28;20035;-78
2022/06/15 08:58:18;;;;;;;1999.90;999.90;;;28.70;40.60;;;;;;4957553;28;20039;-78
2022/06/15 09:00:45;;;;;;;1999.90;999.90;;;28.90;40.60;;;;;;4998445;28;20045;-78
2022/06/15 09:03:14;;;;;;;1999.90;999.90;;;29.00;40.00;;;;;;4974365;28;20042;-78
2022/06/15 09:06:14;;;;;;;1999.90;999.90;;;29.20;39.50;;;;;;4992285;28;20050;-78
2022/06/15 09:08:49;;;;;;;1999.90;999.90;;;29.30;39.70;;;;;;4992081;28;20047;-78
2022/06/15 09:11:19;;;;;;;1999.90;999.90;;;29.50;39.50;;;;;;4974102;28;20048;-78
2022/06/15 09:14:13;;;;;;;1999.90;999.90;;;29.60;38.60;;;;;;4957841;28;20042;-78
2022/06/15 09:16:54;;;;;;;1999.90;999.90;;;29.70;38.50;;;;;;4956344;28;20035;-78
2022/06/15 09:19:51;;;;;;;1999.90;999.90;;;29.70;38.80;;;;;;4971587;28;20041;-78
2022/06/15 09:22:29;;;;;;;1999.90;999.90;;;29.90;38.80;;;;;;4919437;29;20083;-79
2022/06/15 09:25:10;;;;;;;1999.90;999.90;;;30.00;37.90;;;;;;4935876;29;20047;-78
2022/06/15 09:27:40;;;;;;;1999.90;999.90;;;30.00;39.20;;;;;;4967808;28;20058;-76
2022/06/15 09:30:09;;;;;;;1999.90;999.90;;;30.10;38.20;;;;;;4949848;28;20031;-78
2022/06/15 09:32:42;;;;;;;1999.90;999.90;;;30.10;37.60;;;;;;4949975;28;20050;-78
2022/06/15 09:35:29;;;;;;;1999.90;999.90;;;30.20;37.60;;;;;;4922348;29;20035;-78
2022/06/15 09:37:56;;;;;;;1999.90;999.90;;;30.30;37.60;;;;;;4948419;28;20043;-78
2022/06/15 09:40:28;;;;;;;1999.90;999.90;;;30.40;36.80;;;;;;4932861;29;20059;-78
2022/06/15 09:43:21;;;;;;;1999.90;999.90;;;30.40;36.60;;;;;;4934015;29;20190;-78
2022/06/15 09:46:04;;;;;;;1999.90;999.90;;;30.60;36.80;;;;;;4941758;28;20036;-78
2022/06/15 09:48:52;;;;;;;1999.90;999.90;;;30.70;37.10;;;;;;4933750;29;20556;-76
2022/06/15 09:52:01;;;;;;;1999.90;999.90;;;30.90;36.40;;;;;;4943144;29;20039;-78
2022/06/15 09:54:40;;;;;;;1999.90;999.90;;;30.90;36.20;;;;;;4947653;28;20050;-78
2022/06/15 09:57:06;;;;;;;1999.90;999.90;;;31.00;36.40;;;;;;4933028;29;20476;-78
2022/06/15 09:59:33;;;;;;;1999.90;999.90;;;30.90;36.60;;;;;;4974283;28;20061;-78
2022/06/15 10:02:02;;;;;;;1999.90;999.90;;;31.00;35.90;;;;;;5020805;28;20038;-78
2022/06/15 10:04:29;;;;;;;1999.90;999.90;;;31.00;35.60;;;;;;5026423;28;20041;-78
2022/06/15 10:07:10;;;;;;;1999.90;999.90;;;31.10;35.40;;;;;;5025617;28;20088;-78
2022/06/15 10:09:38;;;;;;;1999.90;999.90;;;31.10;34.70;;;;;;5024567;28;20033;-78
2022/06/15 10:15:14;;;;;;;1999.90;999.90;;;31.20;34.20;;;;;;5005513;28;20041;-78
2022/06/15 10:17:41;;;;;;;1999.90;999.90;;;31.30;34.80;;;;;;5009243;28;20034;-78
2022/06/15 10:20:29;;;;;;;1999.90;999.90;;;31.50;34.40;;;;;;5024091;28;20546;-78
2022/06/15 10:22:55;;;;;;;1999.90;999.90;;;31.50;34.70;;;;;;5011785;28;20486;-78
2022/06/15 10:25:21;;;;;;;1999.90;999.90;;;31.60;33.90;;;;;;5025951;28;20040;-78
2022/06/15 10:27:47;;;;;;;1999.90;999.90;;;31.70;34.10;;;;;;5025404;28;20041;-79
2022/06/15 10:30:15;;;;;;;1999.90;999.90;;;31.70;34.60;;;;;;5010064;28;20033;-78
2022/06/15 10:33:00;;;;;;;1999.90;999.90;;;31.80;33.80;;;;;;5010108;28;20497;-78
2022/06/15 10:35:29;;;;;;;1999.90;999.90;;;31.90;33.40;;;;;;5010209;28;20029;-78
2022/06/15 10:37:56;;;;;;;1999.90;999.90;;;31.90;33.60;;;;;;5024485;28;20022;-78
2022/06/15 10:40:33;;;;;;;1999.90;999.90;;;32.10;33.30;;;;;;5015602;28;20026;-78
2022/06/15 10:43:05;;;;;;;1999.90;999.90;;;32.20;33.30;;;;;;5008168;28;20034;-78
2022/06/15 10:45:42;;;;;;;1999.90;999.90;;;32.40;32.90;;;;;;5020117;28;20049;-78
2022/06/15 10:48:14;;;;;;;1999.90;999.90;;;32.60;33.00;;;;;;5024887;28;20489;-79
2022/06/15 10:51:03;;;;;;;1999.90;999.90;;;32.60;32.20;;;;;;5005145;28;20038;-78
2022/06/15 10:53:48;;;;;;;1999.90;999.90;;;32.80;31.60;;;;;;5008993;28;20033;-78
2022/06/15 11:02:30;;;;;;;1999.90;999.90;;;32.80;31.50;;;;;;5020795;28;20041;-79
2022/06/15 11:05:09;;;;;;;1999.90;999.90;;;32.80;31.40;;;;;;5009837;28;20049;-78
2022/06/15 11:07:50;;;;;;;1999.90;999.90;;;32.80;31.20;;;;;;5016437;28;20041;-78
2022/06/15 11:10:29;;;;;;;1999.90;999.90;;;32.80;31.30;;;;;;5023875;28;20029;-78
2022/06/15 11:13:04;;;;;;;1999.90;999.90;;;33.00;31.30;;;;;;5024857;28;20048;-78
2022/06/15 11:18:43;;;;;;;1999.90;999.90;;;33.20;30.80;;;;;;5028124;28;20030;-78
2022/06/15 11:21:23;;;;;;;1999.90;999.90;;;33.20;30.50;;;;;;5020502;28;20030;-77
2022/06/15 11:24:01;;;;;;;1999.90;999.90;;;33.10;31.10;;;;;;5008655;28;20401;-78
2022/06/15 11:26:53;;;;;;;1999.90;999.90;;;33.30;30.30;;;;;;5009299;28;20045;-78
2022/06/15 11:29:31;;;;;;;1999.90;999.90;;;33.40;29.80;;;;;;5021615;28;20041;-78
2022/06/15 11:32:04;;;;;;;1999.90;999.90;;;33.30;29.60;;;;;;5010146;28;20038;-78
2022/06/15 11:34:33;;;;;;;1999.90;999.90;;;33.30;29.30;;;;;;5028480;28;20497;-78
2022/06/15 11:37:15;;;;;;;1999.90;999.90;;;33.30;29.70;;;;;;5028269;28;20034;-78
2022/06/15 11:39:48;;;;;;;1999.90;999.90;;;33.40;29.60;;;;;;5027902;28;20032;-78
2022/06/15 11:42:15;;;;;;;1999.90;999.90;;;33.40;29.60;;;;;;5028460;28;20022;-78
2022/06/15 11:44:43;;;;;;;1999.90;999.90;;;33.40;30.20;;;;;;5028151;28;20025;-78
2022/06/15 11:47:18;;;;;;;1999.90;999.90;;;33.50;29.30;;;;;;5010688;28;20528;-78
2022/06/15 11:50:21;;;;;;;1999.90;999.90;;;33.50;29.60;;;;;;5028312;28;20029;-78
2022/06/15 11:53:19;;;;;;;1999.90;999.90;;;33.60;29.30;;;;;;5013291;28;20034;-78
2022/06/15 11:56:05;;;;;;;1999.90;999.90;;;33.50;29.10;;;;;;5002318;28;20044;-78
2022/06/15 11:59:10;;;;;;;1999.90;999.90;;;33.60;29.60;;;;;;5011812;28;20501;-78
2022/06/15 12:01:48;;;;;;;1999.90;999.90;;;33.70;28.70;;;;;;5001516;28;20049;-78
2022/06/15 12:04:14;;;;;;;1999.90;999.90;;;33.70;28.20;;;;;;5027530;28;20029;-78
2022/06/15 12:07:03;;;;;;;1999.90;999.90;;;33.60;28.80;;;;;;5012552;28;20018;-78
2022/06/15 12:09:44;;;;;;;1999.90;999.90;;;33.80;29.20;;;;;;5010570;28;20045;-78
2022/06/15 12:12:38;;;;;;;1999.90;999.90;;;34.10;29.40;;;;;;5028346;28;20068;-78
2022/06/15 12:15:22;;;;;;;1999.90;999.90;;;34.40;28.10;;;;;;5011237;28;20049;-78
2022/06/15 12:18:01;;;;;;;1999.90;999.90;;;34.40;28.10;;;;;;5026685;28;20029;-77
2022/06/15 12:20:59;;;;;;;1999.90;999.90;;;34.30;28.20;;;;;;5012052;28;20037;-77
2022/06/15 12:23:44;;;;;;;1999.90;999.90;;;34.10;27.90;;;;;;5010795;28;20049;-78
2022/06/15 12:26:18;;;;;;;1999.90;999.90;;;34.00;28.10;;;;;;5027270;28;20021;-78
2022/06/15 12:29:02;;;;;;;1999.90;999.90;;;34.00;28.50;;;;;;5027995;28;20034;-78
2022/06/15 12:31:55;;;;;;;1999.90;999.90;;;34.00;27.80;;;;;;5003273;28;20045;-77
2022/06/15 12:35:09;;;;;;;1999.90;999.90;;;34.00;28.60;;;;;;5006396;28;20458;-78
2022/06/15 12:37:47;;;;;;;1999.90;999.90;;;34.20;28.00;;;;;;4962909;28;20050;-78
2022/06/15 12:40:36;;;;;;;1999.90;999.90;;;34.40;29.30;;;;;;4954005;28;20098;-78
2022/06/15 12:43:14;;;;;;;1999.90;999.90;;;34.60;27.50;;;;;;4947432;28;20043;-78
2022/06/15 12:45:43;;;;;;;1999.90;999.90;;;34.70;27.50;;;;;;4966641;28;20042;-77
2022/06/15 12:48:24;;;;;;;1999.90;999.90;;;34.50;27.90;;;;;;4955063;28;20046;-78
2022/06/15 12:51:00;;;;;;;1999.90;999.90;;;34.40;28.30;;;;;;4937284;29;20142;-78
2022/06/15 12:53:41;;;;;;;1999.90;999.90;;;34.60;28.00;;;;;;4969067;28;20073;-78
2022/06/15 12:56:13;;;;;;;1999.90;999.90;;;34.90;27.80;;;;;;4970280;28;20054;-78
2022/06/15 12:58:51;;;;;;;1999.90;999.90;;;35.00;27.40;;;;;;4964036;28;20035;-78